Overview Statistics Trail Chart Weather Telemetry Raw packets
 

This is the latest recevied weather packets stored in our database for station/object OM5AST-13. If no packets are shown the sender has not sent any weather packets the latest 10 day(s).

<< 19 20 21 22 23 24 25 >>
Time Temp. Humidity Pressure Rain* Wind** Luminosity Snow
1788013435 26.67° C 42% - 0 mm - 0 W/m² -
1788012235 26.67° C 42% - 0 mm - 0 W/m² -
1788011035 26.67° C 41% - 0 mm - 0 W/m² -
1788009835 26.67° C 42% - 0 mm - 0 W/m² -
1788008635 26.67° C 41% - 0 mm - 0 W/m² -
1788007435 26.67° C 42% - 0 mm - 0 W/m² -
1788006235 25.56° C 44% - 0 mm - 0 W/m² -
1788005036 25.56° C 44% - 0 mm - 0 W/m² -
1788003835 25.56° C 46% - 0 mm - 0 W/m² -
1788002635 25° C 49% - 0 mm - 0 W/m² -
1788001435 24.44° C 50% - 0 mm - 0 W/m² -
1788000235 23.89° C 50% - 0 mm - 0 W/m² -
1787999035 23.89° C 50% - 0 mm - 0 W/m² -
1787997835 23.89° C 52% - 0 mm - 0 W/m² -
1787996635 22.78° C 54% - 0 mm - 0 W/m² -
1787995435 22.22° C 54% - 0 mm - 0 W/m² -
1787994235 22.22° C 54% - 0 mm - 0 W/m² -
1787993035 22.22° C 53% - 0 mm - 0 W/m² -
1787991835 22.22° C 56% - 0 mm - 0 W/m² -
1787990635 21.67° C 57% - 0 mm - 0 W/m² -
1787989435 21.67° C 58% - 0 mm - 0 W/m² -
1787988235 20.56° C 64% - 0 mm - 0 W/m² -
1787987035 20° C 69% - 0 mm - 0 W/m² -
1787985835 20° C 70% - 0 mm - 0 W/m² -
1787984635 20° C 68% - 0 mm - 0 W/m² -

* Rain latest hour (hover to see other rain measurements)
** Current wind speed in m/s (hover to see current wind gust speed)